createdAt,value
2018-12-19T00:00:43.575Z,18.03
2018-12-19T00:03:11.727Z,13.80
2018-12-19T00:05:39.878Z,9.07
2018-12-19T00:08:08.074Z,11.20
2018-12-19T00:10:36.258Z,15.77
2018-12-19T00:13:04.748Z,15.20
2018-12-19T00:15:32.962Z,17.83
2018-12-19T00:18:02.736Z,17.17
2018-12-19T00:20:30.947Z,17.57
2018-12-19T00:22:59.158Z,17.40
2018-12-19T00:25:27.298Z,18.60
2018-12-19T00:27:55.551Z,17.30
2018-12-19T00:30:23.918Z,16.43
2018-12-19T00:32:52.928Z,18.30
2018-12-19T00:35:21.169Z,19.40
2018-12-19T00:37:49.562Z,18.70
2018-12-19T00:40:17.843Z,17.23
2018-12-19T00:42:46.014Z,15.50
2018-12-19T00:45:14.520Z,10.83
2018-12-19T00:47:42.718Z,16.30
2018-12-19T00:50:10.955Z,14.47
2018-12-19T00:52:39.179Z,14.73
2018-12-19T00:55:07.459Z,18.00
2018-12-19T00:57:35.639Z,16.10
2018-12-19T01:00:07.850Z,15.37
2018-12-19T01:02:36.227Z,9.43
2018-12-19T01:05:07.769Z,10.90
2018-12-19T01:07:36.065Z,21.97
2018-12-19T01:10:06.063Z,15.77
2018-12-19T01:12:35.218Z,15.60
2018-12-19T01:15:06.841Z,12.77
2018-12-19T01:17:35.011Z,9.53
2018-12-19T01:20:06.830Z,12.57
2018-12-19T01:22:35.834Z,8.13
2018-12-19T01:25:04.962Z,15.90
2018-12-19T01:27:33.178Z,12.83
2018-12-19T01:30:03.830Z,13.93
2018-12-19T01:32:32.072Z,13.47
2018-12-19T01:35:00.338Z,20.37
2018-12-19T01:37:28.507Z,17.47
2018-12-19T01:39:57.447Z,7.97
2018-12-19T01:42:25.723Z,14.10
2018-12-19T01:44:54.098Z,20.60
2018-12-19T01:47:22.234Z,18.00
2018-12-19T01:49:50.442Z,19.20
2018-12-19T01:52:18.594Z,11.13
2018-12-19T01:54:46.718Z,14.93
2018-12-19T01:57:14.914Z,15.40
2018-12-19T01:59:43.102Z,16.30
2018-12-19T02:02:11.630Z,15.13
2018-12-19T02:04:39.893Z,14.53
2018-12-19T02:07:08.177Z,14.23
2018-12-19T02:09:36.319Z,11.27
2018-12-19T02:12:05.938Z,19.20
2018-12-19T02:14:34.124Z,18.50
2018-12-19T02:17:03.423Z,17.40
2018-12-19T02:19:31.988Z,18.00
2018-12-19T02:22:00.222Z,20.73
2018-12-19T02:24:29.914Z,16.63
2018-12-19T02:26:58.098Z,18.10
2018-12-19T02:29:26.411Z,16.53
2018-12-19T02:31:55.043Z,17.80
2018-12-19T02:34:23.208Z,18.90
2018-12-19T02:36:51.950Z,20.53
2018-12-19T02:39:20.137Z,19.33
2018-12-19T02:41:48.359Z,8.60
2018-12-19T02:44:16.547Z,14.00
2018-12-19T02:46:44.715Z,12.63
2018-12-19T02:49:12.923Z,14.20
2018-12-19T02:51:41.263Z,14.30
2018-12-19T02:54:09.491Z,16.00
2018-12-19T02:56:37.746Z,10.67
2018-12-19T02:59:05.887Z,12.40
2018-12-19T03:01:34.235Z,15.70
2018-12-19T03:04:05.076Z,14.57
2018-12-19T03:06:33.251Z,11.70
2018-12-19T03:09:04.917Z,14.90
2018-12-19T03:11:33.079Z,6.70
2018-12-19T03:14:01.975Z,14.50
2018-12-19T03:16:30.706Z,13.80
2018-12-19T03:18:58.846Z,12.10
2018-12-19T03:21:27.006Z,12.10
2018-12-19T03:23:55.391Z,12.70
2018-12-19T03:26:23.714Z,11.87
2018-12-19T03:28:51.879Z,14.17
2018-12-19T03:31:20.028Z,12.50
2018-12-19T03:33:48.398Z,11.87
2018-12-19T03:36:16.612Z,10.27
2018-12-19T03:38:45.222Z,10.30
2018-12-19T03:41:13.482Z,11.10
2018-12-19T03:43:41.683Z,12.43
2018-12-19T03:46:09.841Z,10.37
2018-12-19T03:48:43.519Z,10.00
2018-12-19T03:51:11.812Z,10.53
2018-12-19T03:53:40.028Z,8.27
2018-12-19T03:56:08.188Z,9.27
2018-12-19T03:58:36.334Z,7.00
2018-12-19T04:01:06.854Z,7.57
2018-12-19T04:03:35.034Z,8.37
2018-12-19T04:06:06.683Z,8.67
2018-12-19T04:08:34.827Z,8.43
2018-12-19T04:11:05.048Z,8.50
2018-12-19T04:13:33.611Z,7.27
2018-12-19T04:16:05.571Z,8.03
2018-12-19T04:18:33.908Z,8.83
2018-12-19T04:21:05.537Z,9.90
2018-12-19T04:23:33.806Z,9.20
2018-12-19T04:26:03.659Z,8.07
2018-12-19T04:28:31.863Z,7.40
2018-12-19T04:30:59.985Z,9.87
2018-12-19T04:33:29.086Z,8.90
2018-12-19T04:35:57.330Z,8.03
2018-12-19T04:38:25.919Z,8.60
2018-12-19T04:40:54.126Z,8.50
2018-12-19T04:43:22.336Z,8.57
2018-12-19T04:45:50.518Z,8.50
2018-12-19T04:48:18.679Z,9.33
2018-12-19T04:50:47.762Z,9.43
2018-12-19T04:53:15.956Z,9.27
2018-12-19T04:55:44.174Z,11.13
2018-12-19T04:58:12.464Z,10.47
2018-12-19T05:00:40.990Z,10.77
2018-12-19T05:03:09.595Z,11.97
2018-12-19T05:05:37.795Z,11.03
2018-12-19T05:08:06.050Z,11.60
2018-12-19T05:10:34.243Z,9.93
2018-12-19T05:13:06.344Z,10.80
2018-12-19T05:15:43.489Z,10.40
2018-12-19T05:18:11.890Z,9.27
2018-12-19T05:20:40.048Z,9.43
2018-12-19T05:23:09.153Z,11.20
2018-12-19T05:25:37.303Z,11.90
2018-12-19T05:28:06.734Z,10.37
2018-12-19T05:30:34.903Z,10.27
2018-12-19T05:33:05.930Z,12.70
2018-12-19T05:35:34.126Z,12.70
2018-12-19T05:38:05.193Z,13.27
2018-12-19T05:40:33.359Z,14.80
2018-12-19T05:43:05.647Z,13.77
2018-12-19T05:45:35.319Z,14.80
2018-12-19T05:48:04.087Z,13.83
2018-12-19T05:50:32.367Z,15.67
2018-12-19T05:53:00.601Z,13.37
2018-12-19T05:55:28.978Z,11.70
2018-12-19T05:57:57.175Z,10.30
2018-12-19T06:00:25.311Z,13.60
2018-12-19T06:02:53.485Z,12.27
2018-12-19T06:05:21.675Z,13.27
2018-12-19T06:07:49.850Z,14.00
2018-12-19T06:10:25.991Z,15.07
2018-12-19T06:12:48.874Z,14.50
2018-12-19T06:15:17.015Z,15.03
2018-12-19T06:17:45.391Z,11.03
2018-12-19T06:20:13.555Z,13.10
2018-12-19T06:22:41.751Z,10.60
2018-12-19T06:25:09.912Z,13.43
2018-12-19T06:27:38.144Z,14.93
2018-12-19T06:30:06.948Z,12.93
2018-12-19T06:32:35.169Z,13.63
2018-12-19T06:35:06.858Z,14.50
2018-12-19T06:37:35.105Z,13.50
2018-12-19T06:40:09.847Z,14.33
2018-12-19T06:42:38.030Z,12.80
2018-12-19T06:45:07.411Z,15.83
2018-12-19T06:47:35.726Z,16.73
2018-12-19T06:50:06.130Z,14.20
2018-12-19T06:52:34.318Z,15.30
2018-12-19T06:55:06.194Z,13.00
2018-12-19T06:57:34.391Z,15.17
2018-12-19T07:00:07.203Z,13.30
2018-12-19T07:02:35.458Z,16.00
2018-12-19T07:05:05.232Z,13.00
2018-12-19T07:07:33.522Z,15.87
2018-12-19T07:10:03.743Z,12.67
2018-12-19T07:12:31.959Z,12.77
2018-12-19T07:15:00.223Z,13.10
2018-12-19T07:17:29.351Z,12.43
2018-12-19T07:19:57.510Z,11.97
2018-12-19T07:22:25.881Z,13.10
2018-12-19T07:24:54.147Z,11.40
2018-12-19T07:27:22.323Z,12.40
2018-12-19T07:29:50.887Z,12.60
2018-12-19T07:32:19.048Z,13.30
2018-12-19T07:34:47.271Z,12.40
2018-12-19T07:37:15.527Z,11.50
2018-12-19T07:39:43.622Z,10.57
2018-12-19T07:42:11.763Z,9.90
2018-12-19T07:44:40.102Z,9.43
2018-12-19T07:47:08.296Z,10.60
2018-12-19T07:49:36.550Z,10.60
2018-12-19T07:52:05.042Z,9.73
2018-12-19T07:54:33.208Z,9.63
2018-12-19T07:57:04.710Z,9.23
2018-12-19T07:59:32.868Z,9.03
2018-12-19T08:02:04.746Z,9.13
2018-12-19T08:04:33.030Z,9.50
2018-12-19T08:07:06.411Z,10.33
2018-12-19T08:09:34.522Z,10.43
2018-12-19T08:12:03.458Z,8.70
2018-12-19T08:14:31.597Z,10.80
2018-12-19T08:16:59.798Z,9.10
2018-12-19T08:19:28.023Z,9.83
2018-12-19T08:21:56.199Z,10.53
2018-12-19T08:24:24.375Z,10.70
2018-12-19T08:26:52.528Z,10.53
2018-12-19T08:29:20.801Z,10.77
2018-12-19T08:31:49.007Z,10.20
2018-12-19T08:34:17.461Z,10.13
2018-12-19T08:36:45.832Z,9.20
2018-12-19T08:39:14.414Z,8.90
2018-12-19T08:41:42.920Z,9.03
2018-12-19T08:44:11.267Z,9.63
2018-12-19T08:46:39.534Z,10.23
2018-12-19T08:49:07.746Z,8.63
2018-12-19T08:51:35.951Z,8.47
2018-12-19T08:54:04.218Z,9.20
2018-12-19T08:56:33.294Z,7.57
2018-12-19T08:59:02.774Z,9.37
2018-12-19T09:01:30.938Z,7.33
2018-12-19T09:03:59.127Z,7.23
2018-12-19T09:06:27.392Z,8.07
2018-12-19T09:08:55.550Z,8.20
2018-12-19T09:11:24.095Z,9.20
2018-12-19T09:13:52.242Z,9.17
2018-12-19T09:16:20.423Z,9.07
2018-12-19T09:18:48.606Z,8.73
2018-12-19T09:21:16.779Z,10.13
2018-12-19T09:23:44.974Z,9.80
2018-12-19T09:26:14.029Z,10.50
2018-12-19T09:28:42.246Z,11.70
2018-12-19T09:31:10.406Z,9.83
2018-12-19T09:33:38.566Z,11.27
2018-12-19T09:36:06.835Z,11.03
2018-12-19T09:38:35.146Z,11.00
2018-12-19T09:41:05.085Z,10.27
2018-12-19T09:43:33.429Z,10.50
2018-12-19T09:46:04.746Z,9.87
2018-12-19T09:48:34.048Z,9.90
2018-12-19T09:51:07.187Z,8.83
2018-12-19T09:53:35.908Z,8.70
2018-12-19T09:56:06.671Z,8.10
2018-12-19T09:58:34.871Z,8.03
2018-12-19T10:01:07.106Z,6.57
2018-12-19T10:03:35.278Z,7.53
2018-12-19T10:06:05.762Z,7.40
2018-12-19T10:08:33.944Z,7.27
2018-12-19T10:11:05.866Z,6.93
2018-12-19T10:13:34.098Z,6.73
2018-12-19T10:16:04.314Z,7.87
2018-12-19T10:18:32.470Z,6.90
2018-12-19T10:21:00.630Z,6.77
2018-12-19T10:23:28.933Z,7.03
2018-12-19T10:26:02.954Z,6.27
2018-12-19T10:28:35.116Z,5.90
2018-12-19T10:31:04.941Z,5.73
2018-12-19T10:33:33.199Z,4.57
2018-12-19T10:36:02.099Z,4.10
2018-12-19T10:38:30.269Z,3.50
2018-12-19T10:40:58.530Z,3.53
2018-12-19T10:43:26.722Z,3.67
2018-12-19T10:45:54.875Z,3.70
2018-12-19T10:48:23.923Z,3.67
2018-12-19T10:50:52.377Z,3.43
2018-12-19T10:53:20.639Z,3.77
2018-12-19T10:55:48.842Z,3.67
2018-12-19T10:58:17.045Z,3.43
2018-12-19T11:00:50.884Z,3.03
2018-12-19T11:03:19.087Z,3.60
2018-12-19T11:05:47.266Z,2.60
2018-12-19T11:08:15.430Z,3.37
2018-12-19T11:10:45.099Z,2.90
2018-12-19T11:13:13.474Z,2.80
2018-12-19T11:15:41.630Z,3.70
2018-12-19T11:18:09.780Z,3.43
2018-12-19T11:20:38.026Z,2.93
2018-12-19T11:23:07.621Z,3.00
2018-12-19T11:25:35.810Z,2.60
2018-12-19T11:28:04.124Z,2.77
2018-12-19T11:30:32.363Z,3.20
2018-12-19T11:33:00.499Z,3.37
2018-12-19T11:35:28.635Z,2.70
2018-12-19T11:37:57.138Z,1.80
2018-12-19T11:40:25.286Z,1.60
2018-12-19T11:42:53.464Z,1.97
2018-12-19T11:45:21.627Z,1.87
2018-12-19T11:47:49.806Z,1.87
2018-12-19T11:50:18.066Z,2.17
2018-12-19T11:52:46.213Z,1.50
2018-12-19T11:55:14.454Z,1.80
2018-12-19T11:57:42.607Z,1.53
2018-12-19T12:00:11.198Z,1.97
2018-12-19T12:02:39.466Z,1.87
2018-12-19T12:05:07.799Z,2.00
2018-12-19T12:07:36.039Z,2.50
2018-12-19T12:10:04.891Z,1.83
2018-12-19T12:12:33.367Z,2.30
2018-12-19T12:15:02.802Z,2.37
2018-12-19T12:17:30.962Z,2.07
2018-12-19T12:19:59.321Z,2.67
2018-12-19T12:22:27.450Z,3.80
2018-12-19T12:24:55.767Z,3.10
2018-12-19T12:27:24.290Z,4.10
2018-12-19T12:29:52.450Z,3.10
2018-12-19T12:32:20.699Z,4.50
2018-12-19T12:34:48.870Z,4.10
2018-12-19T12:37:17.064Z,3.87
2018-12-19T12:39:45.229Z,4.57
2018-12-19T12:42:13.546Z,4.67
2018-12-19T12:44:42.046Z,3.80
2018-12-19T12:47:10.644Z,4.60
2018-12-19T12:49:38.787Z,4.97
2018-12-19T12:52:07.836Z,4.57
2018-12-19T12:54:36.116Z,4.40
2018-12-19T12:57:06.847Z,3.80
2018-12-19T12:59:34.978Z,4.03
2018-12-19T13:02:04.996Z,3.07
2018-12-19T13:04:33.170Z,3.40
2018-12-19T13:07:04.759Z,3.07
2018-12-19T13:09:32.905Z,2.80
2018-12-19T13:12:03.160Z,2.23
2018-12-19T13:14:31.395Z,2.37
2018-12-19T13:16:59.666Z,1.83
2018-12-19T13:19:27.978Z,2.13
2018-12-19T13:21:56.135Z,2.53
2018-12-19T13:24:24.434Z,3.03
2018-12-19T13:26:52.619Z,3.53
2018-12-19T13:29:20.930Z,3.07
2018-12-19T13:31:49.239Z,3.90
2018-12-19T13:34:18.287Z,3.47
2018-12-19T13:36:46.455Z,3.83
2018-12-19T13:39:14.765Z,4.20
2018-12-19T13:41:43.048Z,4.83
2018-12-19T13:44:11.253Z,4.43
2018-12-19T13:46:39.443Z,3.83
2018-12-19T13:49:07.719Z,4.23
2018-12-19T13:51:36.740Z,4.13
2018-12-19T13:54:07.807Z,3.53
2018-12-19T13:56:36.142Z,4.30
2018-12-19T13:59:06.815Z,5.43
2018-12-19T14:01:35.192Z,7.40
2018-12-19T14:04:06.652Z,8.47
2018-12-19T14:06:34.852Z,7.57
2018-12-19T14:09:07.364Z,7.97
2018-12-19T14:11:36.222Z,9.47
2018-12-19T14:14:04.573Z,11.60
2018-12-19T14:16:32.826Z,7.90
2018-12-19T14:19:01.977Z,5.37
2018-12-19T14:21:30.278Z,5.53
2018-12-19T14:23:58.434Z,6.90
2018-12-19T14:26:28.549Z,6.50
2018-12-19T14:28:56.939Z,6.10
2018-12-19T14:31:25.192Z,9.90
2018-12-19T14:33:53.983Z,8.90
2018-12-19T14:36:22.135Z,7.37
2018-12-19T14:38:50.329Z,6.83
2018-12-19T14:41:19.162Z,5.87
2018-12-19T14:43:47.315Z,6.80
2018-12-19T14:46:16.211Z,6.80
2018-12-19T14:48:44.387Z,8.13
2018-12-19T14:51:12.688Z,8.70
2018-12-19T14:53:40.913Z,8.30
2018-12-19T14:56:09.077Z,6.70
2018-12-19T14:58:37.258Z,7.33
2018-12-19T15:01:05.858Z,8.90
2018-12-19T15:03:34.162Z,8.60
2018-12-19T15:06:05.367Z,8.80
2018-12-19T15:08:33.503Z,7.57
2018-12-19T15:11:02.046Z,8.57
2018-12-19T15:13:30.991Z,9.47
2018-12-19T15:16:04.610Z,8.63
2018-12-19T15:18:32.759Z,8.27
2018-12-19T15:21:04.655Z,8.13
2018-12-19T15:23:33.303Z,9.00
2018-12-19T15:26:02.337Z,9.00
2018-12-19T15:28:30.495Z,9.33
2018-12-19T15:30:58.610Z,8.23
2018-12-19T15:33:26.759Z,7.90
2018-12-19T15:35:55.179Z,8.67
2018-12-19T15:38:23.351Z,8.83
2018-12-19T15:40:51.587Z,9.53
2018-12-19T15:43:19.815Z,9.13
2018-12-19T15:45:48.881Z,9.20
2018-12-19T15:48:17.107Z,10.90
2018-12-19T15:50:45.254Z,10.57
2018-12-19T15:53:13.503Z,12.03
2018-12-19T15:55:41.791Z,12.70
2018-12-19T15:58:09.991Z,10.30
2018-12-19T16:00:38.214Z,10.77
2018-12-19T16:03:06.475Z,11.20
2018-12-19T16:05:34.727Z,9.73
2018-12-19T16:08:08.651Z,10.30
2018-12-19T16:10:36.815Z,10.73
2018-12-19T16:13:04.930Z,9.30
2018-12-19T16:15:33.162Z,8.60
2018-12-19T16:18:02.074Z,9.47
2018-12-19T16:20:30.247Z,13.70
2018-12-19T16:22:59.529Z,14.37
2018-12-19T16:25:27.836Z,13.90
2018-12-19T16:27:56.202Z,16.37
2018-12-19T16:30:24.375Z,15.87
2018-12-19T16:32:52.686Z,16.40
2018-12-19T16:35:21.960Z,14.83
2018-12-19T16:37:50.206Z,16.40
2018-12-19T16:40:18.411Z,15.83
2018-12-19T16:42:46.598Z,13.50
2018-12-19T16:45:14.769Z,14.03
2018-12-19T16:47:43.896Z,14.80
2018-12-19T16:50:12.436Z,15.90
2018-12-19T16:52:41.623Z,15.80
2018-12-19T16:55:09.871Z,18.47
2018-12-19T16:57:38.082Z,18.97
2018-12-19T17:00:07.873Z,19.03
2018-12-19T17:02:36.113Z,17.63
2018-12-19T17:05:07.534Z,17.33
2018-12-19T17:07:36.406Z,17.30
2018-12-19T17:10:06.931Z,17.93
2018-12-19T17:12:35.256Z,18.27
2018-12-19T17:15:07.291Z,17.73
2018-12-19T17:17:35.475Z,17.90
2018-12-19T17:20:07.418Z,15.97
2018-12-19T17:22:35.599Z,13.77
2018-12-19T17:25:04.506Z,15.60
2018-12-19T17:27:32.811Z,17.80
2018-12-19T17:30:05.912Z,14.70
2018-12-19T17:32:37.361Z,17.40
2018-12-19T17:40:55.907Z,18.20
2018-12-19T17:43:29.766Z,18.50
2018-12-19T17:46:09.742Z,19.03
2018-12-19T17:51:33.687Z,19.57
2018-12-19T17:59:07.252Z,19.33
2018-12-19T18:01:39.491Z,19.93
2018-12-19T18:38:49.203Z,22.43
2018-12-19T18:41:17.377Z,22.17
2018-12-19T18:43:46.464Z,22.80
2018-12-19T18:46:14.765Z,26.47
2018-12-19T18:48:42.924Z,23.13
2018-12-19T18:51:11.222Z,23.73
2018-12-19T18:53:39.483Z,21.73
2018-12-19T18:56:07.766Z,21.93
2018-12-19T18:58:37.239Z,20.00
2018-12-19T19:01:06.948Z,17.20
2018-12-19T19:03:35.352Z,21.13
2018-12-19T19:06:05.213Z,14.13
2018-12-19T19:08:33.424Z,19.57
2018-12-19T19:11:04.680Z,20.57
2018-12-19T19:13:32.874Z,19.90
2018-12-19T19:16:03.678Z,19.53
2018-12-19T19:18:31.879Z,19.33
2018-12-19T19:21:00.150Z,18.00
2018-12-19T19:23:28.347Z,18.80
2018-12-19T19:25:56.675Z,16.50
2018-12-19T19:28:24.820Z,16.20
2018-12-19T19:30:53.124Z,20.50
2018-12-19T19:33:21.359Z,15.37
2018-12-19T19:35:49.615Z,14.80
2018-12-19T19:38:17.775Z,12.77
2018-12-19T19:40:46.017Z,11.50
2018-12-19T19:43:14.207Z,13.87
2018-12-19T19:45:43.507Z,12.63
2018-12-19T19:48:11.676Z,13.50
2018-12-19T19:50:40.150Z,12.53
2018-12-19T19:53:08.382Z,16.47
2018-12-19T19:55:36.546Z,17.13
2018-12-19T19:58:06.753Z,15.27
2018-12-19T20:00:35.705Z,17.73
2018-12-19T20:03:06.722Z,17.07
2018-12-19T20:05:34.994Z,18.53
2018-12-19T20:08:09.487Z,19.20
2018-12-19T20:10:37.780Z,16.03
2018-12-19T20:13:06.840Z,16.90
2018-12-19T20:15:35.011Z,20.93
2018-12-19T20:18:08.693Z,18.00
2018-12-19T20:20:36.879Z,20.20
2018-12-19T20:23:05.014Z,19.90
2018-12-19T20:25:33.186Z,15.27
2018-12-19T20:28:02.011Z,16.50
2018-12-19T20:30:30.180Z,15.77
2018-12-19T20:32:58.561Z,16.70
2018-12-19T20:35:26.819Z,15.37
2018-12-19T20:37:55.112Z,15.70
2018-12-19T20:40:23.259Z,14.00
2018-12-19T20:42:51.530Z,16.40
2018-12-19T20:45:19.827Z,14.70
2018-12-19T20:47:48.052Z,16.47
2018-12-19T20:50:23.086Z,16.20
2018-12-19T20:52:51.878Z,17.20
2018-12-19T20:55:20.134Z,15.13
2018-12-19T20:57:48.362Z,18.00
2018-12-19T21:00:16.625Z,18.07
2018-12-19T21:02:44.975Z,17.70
2018-12-19T21:05:13.282Z,15.30
2018-12-19T21:07:41.557Z,18.10
2018-12-19T21:10:09.922Z,18.87
2018-12-19T21:12:38.322Z,16.00
2018-12-19T21:15:07.567Z,16.93
2018-12-19T21:18:44.915Z,14.93
2018-12-19T21:21:14.151Z,14.53
2018-12-19T21:23:43.295Z,15.27
2018-12-19T21:26:12.794Z,14.60
2018-12-19T21:28:41.064Z,18.93
2018-12-19T21:31:09.228Z,15.80
2018-12-19T21:33:37.643Z,19.23
2018-12-19T21:36:07.149Z,16.13
2018-12-19T21:38:35.475Z,15.00
2018-12-19T21:41:05.181Z,15.80
2018-12-19T21:43:33.332Z,13.80
2018-12-19T21:46:06.759Z,18.20
2018-12-19T21:48:35.701Z,16.87
2018-12-19T21:51:04.912Z,12.30
2018-12-19T21:53:33.167Z,10.87
2018-12-19T21:56:04.705Z,15.83
2018-12-19T21:58:32.987Z,13.87
2018-12-19T22:01:04.798Z,17.80
2018-12-19T22:03:33.038Z,17.47
2018-12-19T22:06:04.729Z,20.23
2018-12-19T22:08:33.342Z,13.83
2018-12-19T22:11:01.950Z,13.90
2018-12-19T22:13:30.397Z,9.20
2018-12-19T22:15:58.599Z,21.73
2018-12-19T22:18:33.140Z,21.73
2018-12-19T22:21:01.954Z,22.27
2018-12-19T22:23:30.245Z,21.67
2018-12-19T22:25:58.770Z,23.13
2018-12-19T22:28:26.931Z,24.70
2018-12-19T22:30:55.107Z,23.43
2018-12-19T22:33:23.305Z,21.73
2018-12-19T22:35:51.605Z,19.90
2018-12-19T22:38:19.814Z,23.27
2018-12-19T22:40:48.096Z,22.07
2018-12-19T22:43:16.689Z,19.07
2018-12-19T22:45:44.893Z,21.77
2018-12-19T22:48:13.237Z,22.00
2018-12-19T22:50:41.617Z,24.13
2018-12-19T22:53:09.953Z,23.23
2018-12-19T22:55:38.318Z,22.20
2018-12-19T22:58:06.694Z,22.97
2018-12-19T23:00:40.543Z,22.17
2018-12-19T23:03:08.977Z,20.17
2018-12-19T23:05:42.652Z,20.50
2018-12-19T23:08:10.942Z,20.77
2018-12-19T23:10:39.418Z,21.70
2018-12-19T23:13:07.677Z,23.50
2018-12-19T23:15:36.652Z,23.73
2018-12-19T23:18:11.287Z,21.17
2018-12-19T23:20:40.659Z,21.03
2018-12-19T23:23:08.914Z,20.80
2018-12-19T23:25:37.070Z,19.37
2018-12-19T23:28:06.865Z,21.30
2018-12-19T23:30:35.152Z,21.27
2018-12-19T23:33:04.994Z,16.80
2018-12-19T23:35:33.303Z,19.50
2018-12-19T23:38:06.543Z,17.87
2018-12-19T23:40:34.811Z,18.60
2018-12-19T23:43:04.923Z,18.47
2018-12-19T23:45:33.192Z,16.93
2018-12-19T23:48:01.421Z,19.70
2018-12-19T23:50:29.635Z,20.27
2018-12-19T23:52:57.890Z,18.40
2018-12-19T23:55:26.153Z,17.77
2018-12-19T23:57:54.422Z,18.03
